createdAt,value
2024-05-09T00:00:42.627Z,87.52
2024-05-09T00:03:11.500Z,87.55
2024-05-09T00:05:40.730Z,87.12
2024-05-09T00:08:08.776Z,87.41
2024-05-09T00:10:38.495Z,87.81
2024-05-09T00:13:07.582Z,87.81
2024-05-09T00:15:38.132Z,88.09
2024-05-09T00:18:07.347Z,88.88
2024-05-09T00:20:39.157Z,88.50
2024-05-09T00:23:08.880Z,87.89
2024-05-09T00:25:37.177Z,87.11
2024-05-09T00:28:04.770Z,86.29
2024-05-09T00:30:35.356Z,86.93
2024-05-09T00:33:08.556Z,86.38
2024-05-09T00:35:37.440Z,86.76
2024-05-09T00:38:05.169Z,86.70
2024-05-09T00:40:39.171Z,86.85
2024-05-09T00:43:09.051Z,86.97
2024-05-09T00:45:36.675Z,87.18
2024-05-09T00:48:09.372Z,86.12
2024-05-09T00:50:41.330Z,86.29
2024-05-09T00:53:11.792Z,85.85
2024-05-09T00:55:39.552Z,85.83
2024-05-09T00:58:07.910Z,85.89
2024-05-09T01:00:39.373Z,86.25
2024-05-09T01:03:13.050Z,87.31
2024-05-09T01:05:41.796Z,87.10
2024-05-09T01:08:09.733Z,87.38
2024-05-09T01:10:37.379Z,87.49
2024-05-09T01:13:05.426Z,87.01
2024-05-09T01:15:33.114Z,87.16
2024-05-09T01:18:01.842Z,87.01
2024-05-09T01:20:40.834Z,86.74
2024-05-09T01:23:15.392Z,86.50
2024-05-09T01:25:43.869Z,86.53
2024-05-09T01:28:11.401Z,86.66
2024-05-09T01:30:38.887Z,86.77
2024-05-09T01:33:08.456Z,86.97
2024-05-09T01:35:37.816Z,86.67
2024-05-09T01:38:05.488Z,86.66
2024-05-09T01:40:38.814Z,86.72
2024-05-09T01:43:07.578Z,86.72
2024-05-09T01:45:34.590Z,86.83
2024-05-09T01:48:02.712Z,87.17
2024-05-09T01:50:38.128Z,86.98
2024-05-09T01:53:08.814Z,87.25
2024-05-09T01:55:39.210Z,87.53
2024-05-09T01:58:06.506Z,88.27
2024-05-09T02:00:39.369Z,88.46
2024-05-09T02:03:11.541Z,88.37
2024-05-09T02:05:41.597Z,89.14
2024-05-09T02:08:14.061Z,88.94
2024-05-09T02:10:44.638Z,88.19
2024-05-09T02:13:12.392Z,88.23
2024-05-09T02:15:39.674Z,88.26
2024-05-09T02:18:07.660Z,88.50
2024-05-09T02:20:36.703Z,87.88
2024-05-09T02:23:06.581Z,88.46
2024-05-09T02:25:34.446Z,88.23
2024-05-09T02:28:04.976Z,88.61
2024-05-09T02:30:39.385Z,88.63
2024-05-09T02:33:09.973Z,89.15
2024-05-09T02:35:40.352Z,89.06
2024-05-09T02:38:09.085Z,89.07
2024-05-09T02:40:38.761Z,89.07
2024-05-09T02:43:12.790Z,88.57
2024-05-09T02:45:40.767Z,88.98
2024-05-09T02:48:10.639Z,88.82
2024-05-09T02:50:40.217Z,89.13
2024-05-09T02:53:07.963Z,89.62
2024-05-09T02:55:35.409Z,89.59
2024-05-09T02:58:02.647Z,89.61
2024-05-09T03:00:38.570Z,89.95
2024-05-09T03:03:10.240Z,90.15
2024-05-09T03:05:40.049Z,90.02
2024-05-09T03:08:08.006Z,89.80
2024-05-09T03:10:37.532Z,90.19
2024-05-09T03:13:06.922Z,90.11
2024-05-09T03:15:36.970Z,90.17
2024-05-09T03:18:05.549Z,90.03
2024-05-09T03:20:35.145Z,89.95
2024-05-09T03:23:04.069Z,90.20
2024-05-09T03:25:31.533Z,89.66
2024-05-09T03:27:59.376Z,89.95
2024-05-09T03:30:38.738Z,89.83
2024-05-09T03:33:14.131Z,89.37
2024-05-09T03:35:42.475Z,88.80
2024-05-09T03:38:09.780Z,89.14
2024-05-09T03:40:44.283Z,89.50
2024-05-09T03:43:11.616Z,89.91
2024-05-09T03:45:38.737Z,90.07
2024-05-09T03:48:06.810Z,89.91
2024-05-09T03:50:37.313Z,89.76
2024-05-09T03:53:05.208Z,90.04
2024-05-09T03:55:32.690Z,89.97
2024-05-09T03:58:00.012Z,90.06
2024-05-09T04:00:35.465Z,90.02
2024-05-09T04:03:08.889Z,89.87
2024-05-09T04:05:42.807Z,90.61
2024-05-09T04:08:12.972Z,90.83
2024-05-09T04:10:40.827Z,90.43
2024-05-09T04:13:08.021Z,91.01
2024-05-09T04:15:35.859Z,90.53
2024-05-09T04:18:03.216Z,90.65
2024-05-09T04:20:37.765Z,90.74
2024-05-09T04:23:11.732Z,90.95
2024-05-09T04:25:41.768Z,91.21
2024-05-09T04:28:08.868Z,91.28
2024-05-09T04:30:39.355Z,91.92
2024-05-09T04:33:12.141Z,92.07
2024-05-09T04:35:44.464Z,91.68
2024-05-09T04:38:15.424Z,91.49
2024-05-09T04:40:43.182Z,91.03
2024-05-09T04:43:15.084Z,90.87
2024-05-09T04:45:43.221Z,90.62
2024-05-09T04:48:11.060Z,90.33
2024-05-09T04:50:39.676Z,90.62
2024-05-09T04:53:09.271Z,90.55
2024-05-09T04:55:40.811Z,90.23
2024-05-09T04:58:08.659Z,90.05
2024-05-09T05:00:37.914Z,90.32
2024-05-09T05:03:08.271Z,89.66
2024-05-09T05:05:40.352Z,89.99
2024-05-09T05:08:11.256Z,89.70
2024-05-09T05:10:41.506Z,89.20
2024-05-09T05:13:22.784Z,88.80
2024-05-09T05:15:52.228Z,88.54
2024-05-09T05:18:19.791Z,88.16
2024-05-09T05:21:05.513Z,87.77
2024-05-09T05:23:33.860Z,87.35
2024-05-09T05:26:05.446Z,86.84
2024-05-09T05:28:32.628Z,86.52
2024-05-09T05:30:59.863Z,86.52
2024-05-09T05:33:27.246Z,87.00
2024-05-09T05:35:54.621Z,86.91
2024-05-09T05:38:25.052Z,86.93
2024-05-09T05:40:55.004Z,86.83
2024-05-09T05:43:25.203Z,86.29
2024-05-09T05:45:52.424Z,85.51
2024-05-09T05:48:19.908Z,85.51
2024-05-09T05:50:47.223Z,85.48
2024-05-09T05:53:14.753Z,85.66
2024-05-09T05:55:41.986Z,85.67
2024-05-09T05:58:09.794Z,85.64
2024-05-09T06:00:41.386Z,85.35
2024-05-09T06:03:10.449Z,85.58
2024-05-09T06:05:43.302Z,85.83
2024-05-09T06:08:10.872Z,86.45
2024-05-09T06:10:40.411Z,87.02
2024-05-09T06:13:11.576Z,86.80
2024-05-09T06:15:42.231Z,87.01
2024-05-09T06:18:10.972Z,86.92
2024-05-09T06:20:42.259Z,86.92
2024-05-09T06:23:10.856Z,86.87
2024-05-09T06:25:38.743Z,87.01
2024-05-09T06:28:06.602Z,86.98
2024-05-09T06:30:40.158Z,86.67
2024-05-09T06:33:14.428Z,87.54
2024-05-09T06:35:43.547Z,87.75
2024-05-09T06:38:11.280Z,88.10
2024-05-09T06:40:40.561Z,88.40
2024-05-09T06:43:11.378Z,88.60
2024-05-09T06:45:39.782Z,88.83
2024-05-09T06:48:08.768Z,88.98
2024-05-09T06:50:39.907Z,88.96
2024-05-09T06:53:07.908Z,89.36
2024-05-09T06:55:35.757Z,89.62
2024-05-09T06:58:04.439Z,90.08
2024-05-09T07:00:38.559Z,89.82
2024-05-09T07:03:08.524Z,90.53
2024-05-09T07:05:38.611Z,90.53
2024-05-09T07:08:07.041Z,91.71
2024-05-09T07:10:35.874Z,91.41
2024-05-09T07:13:07.630Z,91.35
2024-05-09T07:15:34.867Z,90.89
2024-05-09T07:18:02.267Z,91.31
2024-05-09T07:20:34.557Z,90.20
2024-05-09T07:23:05.586Z,90.42
2024-05-09T07:25:32.727Z,90.70
2024-05-09T07:27:59.923Z,90.51
2024-05-09T07:30:33.107Z,90.59
2024-05-09T07:33:02.810Z,90.94
2024-05-09T07:35:31.049Z,90.75
2024-05-09T07:37:58.561Z,90.61
2024-05-09T07:40:35.095Z,90.78
2024-05-09T07:43:04.325Z,90.61
2024-05-09T07:45:48.072Z,90.75
2024-05-09T07:53:39.437Z,90.69
2024-05-09T07:56:12.944Z,88.85
2024-05-09T07:58:40.523Z,88.51
2024-05-09T08:01:07.858Z,89.26
2024-05-09T08:03:35.402Z,88.80
2024-05-09T08:06:02.689Z,88.89
2024-05-09T08:08:29.885Z,89.19
2024-05-09T08:10:57.233Z,90.71
2024-05-09T08:13:27.006Z,91.33
2024-05-09T08:15:54.292Z,92.10
2024-05-09T08:18:21.537Z,92.92
2024-05-09T08:20:49.899Z,92.78
2024-05-09T08:23:17.898Z,92.09
2024-05-09T08:25:44.956Z,93.46
2024-05-09T08:28:13.035Z,94.29
2024-05-09T08:30:43.029Z,95.23
2024-05-09T08:33:10.491Z,94.60
2024-05-09T08:35:37.888Z,95.27
2024-05-09T08:38:06.800Z,95.18
2024-05-09T08:40:36.787Z,94.33
2024-05-09T08:43:07.950Z,94.22
2024-05-09T08:45:36.396Z,94.58
2024-05-09T08:48:07.964Z,93.85
2024-05-09T08:50:39.429Z,94.72
2024-05-09T08:53:07.759Z,95.43
2024-05-09T08:55:37.282Z,94.52
2024-05-09T08:58:07.112Z,94.88
2024-05-09T09:00:37.276Z,93.32
2024-05-09T09:03:09.611Z,94.12
2024-05-09T09:05:39.318Z,93.84
2024-05-09T09:08:08.900Z,91.66
2024-05-09T09:10:37.007Z,91.98
2024-05-09T09:13:05.307Z,94.07
2024-05-09T09:15:33.176Z,92.64
2024-05-09T09:18:01.336Z,94.47
2024-05-09T09:20:36.448Z,94.40
2024-05-09T09:23:04.944Z,94.89
2024-05-09T09:25:32.351Z,95.10
2024-05-09T09:27:59.748Z,96.08
2024-05-09T09:30:35.153Z,92.45
2024-05-09T09:33:05.618Z,91.74
2024-05-09T09:35:36.348Z,91.79
2024-05-09T09:38:04.731Z,90.27
2024-05-09T09:40:36.006Z,90.63
2024-05-09T09:43:09.356Z,91.52
2024-05-09T09:45:36.983Z,89.13
2024-05-09T09:48:05.869Z,85.90
2024-05-09T09:50:36.195Z,85.59
2024-05-09T09:53:04.276Z,86.32
2024-05-09T09:55:32.904Z,88.24
2024-05-09T09:58:00.982Z,88.67
2024-05-09T10:00:33.010Z,87.34
2024-05-09T10:03:01.598Z,85.99
2024-05-09T10:05:29.563Z,84.54
2024-05-09T10:08:04.800Z,84.31
2024-05-09T10:10:34.011Z,84.06
2024-05-09T10:13:03.588Z,85.61
2024-05-09T10:15:31.536Z,86.42
2024-05-09T10:18:06.411Z,84.39
2024-05-09T10:20:41.226Z,84.30
2024-05-09T10:23:28.282Z,82.27
2024-05-09T10:25:57.242Z,83.50
2024-05-09T10:28:27.774Z,80.58
2024-05-09T10:31:08.142Z,79.44
2024-05-09T10:33:37.367Z,80.52
2024-05-09T10:36:05.138Z,82.57
2024-05-09T10:38:35.010Z,81.80
2024-05-09T10:41:02.527Z,79.31
2024-05-09T10:43:31.393Z,77.81
2024-05-09T10:45:58.651Z,78.83
2024-05-09T10:48:26.972Z,75.39
2024-05-09T10:50:54.311Z,77.54
2024-05-09T10:53:23.153Z,80.75
2024-05-09T10:56:00.302Z,79.96
2024-05-09T10:58:27.941Z,79.83
2024-05-09T11:00:58.534Z,77.68
2024-05-09T11:03:26.524Z,75.35
2024-05-09T11:05:54.165Z,74.94
2024-05-09T11:08:24.644Z,77.49
2024-05-09T11:10:53.028Z,78.04
2024-05-09T11:13:30.192Z,76.58
2024-05-09T11:15:57.523Z,78.69
2024-05-09T11:18:29.732Z,78.43
2024-05-09T11:20:58.951Z,79.46
2024-05-09T11:23:27.789Z,80.15
2024-05-09T11:25:56.677Z,82.00
2024-05-09T11:28:24.369Z,81.05
2024-05-09T11:31:05.491Z,81.12
2024-05-09T11:33:33.285Z,82.45
2024-05-09T11:36:00.577Z,81.19
2024-05-09T11:38:27.745Z,81.86
2024-05-09T11:40:55.013Z,82.97
2024-05-09T11:43:22.288Z,83.54
2024-05-09T11:45:49.643Z,81.88
2024-05-09T11:48:19.921Z,81.83
2024-05-09T11:50:47.322Z,82.53
2024-05-09T11:53:14.500Z,82.72
2024-05-09T11:55:41.759Z,82.11
2024-05-09T11:58:09.095Z,83.15
2024-05-09T12:00:37.513Z,83.74
2024-05-09T12:03:06.186Z,83.40
2024-05-09T12:05:36.226Z,82.88
2024-05-09T12:08:03.751Z,83.00
2024-05-09T12:10:34.303Z,82.05
2024-05-09T12:13:04.945Z,81.01
2024-05-09T12:15:36.390Z,82.38
2024-05-09T12:18:05.361Z,81.95
2024-05-09T12:20:38.788Z,82.95
2024-05-09T12:23:10.023Z,83.11
2024-05-09T12:25:39.067Z,82.43
2024-05-09T12:28:07.299Z,84.18
2024-05-09T12:30:38.645Z,83.54
2024-05-09T12:33:08.721Z,84.73
2024-05-09T12:35:39.064Z,83.03
2024-05-09T12:38:06.196Z,82.39
2024-05-09T12:40:37.026Z,83.32
2024-05-09T12:43:07.601Z,82.73
2024-05-09T12:45:35.600Z,80.53
2024-05-09T12:48:07.031Z,80.83
2024-05-09T12:50:34.952Z,78.65
2024-05-09T12:53:05.501Z,79.23
2024-05-09T12:55:41.141Z,81.08
2024-05-09T12:58:16.393Z,80.13
2024-05-09T13:00:44.046Z,77.88
2024-05-09T13:03:11.486Z,78.11
2024-05-09T13:05:41.514Z,80.26
2024-05-09T13:08:12.046Z,79.46
2024-05-09T13:10:39.467Z,82.07
2024-05-09T13:13:06.710Z,81.69
2024-05-09T13:15:40.232Z,81.73
2024-05-09T13:18:08.505Z,81.94
2024-05-09T13:20:36.933Z,83.62
2024-05-09T13:23:05.974Z,81.20
2024-05-09T13:25:36.979Z,80.25
2024-05-09T13:28:05.591Z,82.02
2024-05-09T13:30:39.387Z,83.77
2024-05-09T13:33:09.313Z,84.44
2024-05-09T13:35:36.800Z,84.99
2024-05-09T13:38:04.882Z,85.30
2024-05-09T13:40:35.108Z,85.22
2024-05-09T13:43:06.495Z,86.08
2024-05-09T13:45:34.113Z,86.13
2024-05-09T13:48:02.701Z,87.43
2024-05-09T13:50:34.742Z,87.88
2024-05-09T13:53:06.185Z,87.66
2024-05-09T13:55:35.475Z,88.33
2024-05-09T13:58:02.719Z,88.32
2024-05-09T14:00:43.790Z,88.19
2024-05-09T14:03:16.250Z,89.05
2024-05-09T14:05:44.470Z,88.95
2024-05-09T14:08:11.969Z,89.07
2024-05-09T14:10:44.248Z,89.59
2024-05-09T14:13:12.433Z,89.72
2024-05-09T14:15:42.561Z,89.80
2024-05-09T14:18:13.119Z,90.47
2024-05-09T14:20:41.540Z,90.11
2024-05-09T14:23:08.941Z,90.27
2024-05-09T14:25:39.944Z,89.81
2024-05-09T14:28:09.445Z,89.12
2024-05-09T14:30:38.310Z,89.04
2024-05-09T14:33:09.672Z,88.78
2024-05-09T14:35:38.784Z,88.12
2024-05-09T14:38:06.765Z,88.70
2024-05-09T14:40:40.842Z,88.80
2024-05-09T14:43:11.353Z,87.84
2024-05-09T14:45:38.870Z,88.76
2024-05-09T14:48:09.876Z,88.55
2024-05-09T14:50:39.603Z,88.93
2024-05-09T14:53:08.233Z,88.69
2024-05-09T14:55:37.018Z,88.00
2024-05-09T14:58:06.457Z,88.51
2024-05-09T15:00:36.758Z,88.90
2024-05-09T15:03:05.940Z,89.35
2024-05-09T15:05:35.861Z,89.29
2024-05-09T15:08:06.059Z,90.10
2024-05-09T15:10:35.883Z,89.93
2024-05-09T15:13:04.856Z,89.85
2024-05-09T15:15:32.234Z,90.54
2024-05-09T15:17:59.962Z,90.18
2024-05-09T15:20:34.255Z,90.88
2024-05-09T15:23:07.382Z,90.14
2024-05-09T15:25:35.837Z,90.05
2024-05-09T15:28:04.057Z,89.53
2024-05-09T15:30:33.586Z,89.44
2024-05-09T15:33:06.043Z,89.96
2024-05-09T15:35:34.383Z,89.27
2024-05-09T15:38:03.551Z,89.49
2024-05-09T15:40:39.304Z,90.23
2024-05-09T15:43:10.118Z,89.88
2024-05-09T15:45:39.833Z,89.47
2024-05-09T15:48:09.069Z,90.40
2024-05-09T15:50:40.730Z,89.60
2024-05-09T15:53:10.413Z,89.20
2024-05-09T15:55:41.514Z,89.94
2024-05-09T15:58:08.951Z,90.20
2024-05-09T16:00:40.280Z,89.66
2024-05-09T16:03:10.483Z,88.99
2024-05-09T16:05:38.520Z,89.24
2024-05-09T16:08:06.621Z,88.61
2024-05-09T16:10:34.963Z,88.28
2024-05-09T16:13:05.620Z,88.42
2024-05-09T16:15:32.900Z,88.90
2024-05-09T16:18:00.573Z,89.13
2024-05-09T16:20:37.269Z,89.62
2024-05-09T16:23:08.148Z,88.94
2024-05-09T16:25:35.927Z,89.03
2024-05-09T16:28:09.888Z,88.53
2024-05-09T16:30:38.319Z,88.59
2024-05-09T16:33:07.009Z,88.81
2024-05-09T16:35:35.187Z,88.34
2024-05-09T16:38:02.473Z,88.12
2024-05-09T16:40:36.963Z,88.76
2024-05-09T16:43:10.899Z,88.71
2024-05-09T16:45:39.602Z,89.17
2024-05-09T16:48:07.824Z,88.76
2024-05-09T16:50:35.992Z,88.92
2024-05-09T16:53:04.846Z,88.95
2024-05-09T16:55:32.946Z,88.71
2024-05-09T16:58:00.759Z,89.28
2024-05-09T17:00:39.162Z,88.73
2024-05-09T17:03:11.472Z,89.39
2024-05-09T17:05:39.536Z,88.87
2024-05-09T17:08:07.486Z,86.63
2024-05-09T17:10:36.504Z,87.02
2024-05-09T17:13:06.178Z,87.32
2024-05-09T17:15:37.963Z,87.53
2024-05-09T17:18:06.074Z,87.55
2024-05-09T17:20:36.244Z,87.24
2024-05-09T17:23:06.219Z,86.89
2024-05-09T17:25:34.277Z,86.36
2024-05-09T17:28:07.630Z,86.44
2024-05-09T17:30:40.018Z,86.54
2024-05-09T17:33:10.049Z,86.60
2024-05-09T17:35:38.567Z,86.60
2024-05-09T17:38:06.108Z,86.48
2024-05-09T17:40:36.290Z,86.97
2024-05-09T17:43:06.600Z,86.69
2024-05-09T17:45:39.181Z,86.89
2024-05-09T17:48:09.549Z,86.49
2024-05-09T17:50:38.015Z,87.00
2024-05-09T17:53:05.813Z,87.12
2024-05-09T17:55:33.722Z,86.73
2024-05-09T17:58:01.541Z,86.65
2024-05-09T18:00:37.040Z,86.71
2024-05-09T18:03:14.207Z,86.53
2024-05-09T18:05:43.351Z,86.30
2024-05-09T18:08:11.734Z,85.88
2024-05-09T18:10:40.745Z,86.17
2024-05-09T18:13:09.131Z,86.53
2024-05-09T18:15:36.558Z,86.63
2024-05-09T18:18:04.609Z,87.13
2024-05-09T18:20:42.177Z,86.80
2024-05-09T18:23:14.254Z,87.68
2024-05-09T18:25:42.744Z,87.99
2024-05-09T18:28:10.368Z,88.06
2024-05-09T18:30:38.019Z,87.85
2024-05-09T18:33:07.806Z,87.86
2024-05-09T18:35:38.562Z,87.30
2024-05-09T18:38:06.072Z,87.25
2024-05-09T18:40:36.456Z,87.62
2024-05-09T18:43:07.819Z,87.57
2024-05-09T18:45:36.871Z,87.45
2024-05-09T18:48:06.124Z,87.63
2024-05-09T18:50:37.731Z,87.68
2024-05-09T18:53:12.047Z,87.93
2024-05-09T18:55:40.441Z,87.49
2024-05-09T18:58:07.736Z,87.36
2024-05-09T19:00:38.447Z,87.99
2024-05-09T19:03:10.490Z,88.46
2024-05-09T19:05:40.819Z,88.46
2024-05-09T19:08:11.319Z,88.44
2024-05-09T19:10:39.282Z,87.96
2024-05-09T19:13:10.919Z,88.28
2024-05-09T19:15:40.960Z,87.93
2024-05-09T19:18:09.746Z,87.98
2024-05-09T19:20:37.732Z,87.93
2024-05-09T19:23:06.437Z,87.35
2024-05-09T19:25:36.908Z,87.58
2024-05-09T19:28:05.157Z,88.11
2024-05-09T19:30:39.424Z,87.88
2024-05-09T19:33:10.571Z,87.56
2024-05-09T19:35:38.989Z,87.38
2024-05-09T19:38:06.720Z,87.30
2024-05-09T19:40:36.876Z,87.27
2024-05-09T19:43:05.814Z,87.70
2024-05-09T19:45:35.015Z,86.97
2024-05-09T19:48:05.464Z,87.41
2024-05-09T19:50:41.202Z,86.89
2024-05-09T19:53:11.832Z,87.52
2024-05-09T19:55:42.363Z,87.75
2024-05-09T19:58:10.199Z,87.88
2024-05-09T20:00:40.882Z,87.68
2024-05-09T20:03:11.018Z,88.20
2024-05-09T20:05:39.266Z,88.30
2024-05-09T20:08:07.658Z,87.91
2024-05-09T20:10:36.222Z,86.87
2024-05-09T20:13:08.327Z,87.53
2024-05-09T20:15:37.776Z,87.16
2024-05-09T20:18:06.428Z,87.50
2024-05-09T20:20:39.229Z,87.65
2024-05-09T20:23:10.071Z,87.94
2024-05-09T20:25:37.395Z,88.29
2024-05-09T20:28:07.792Z,88.08
2024-05-09T20:30:36.133Z,88.50
2024-05-09T20:33:05.697Z,88.53
2024-05-09T20:35:34.721Z,88.30
2024-05-09T20:38:03.290Z,87.96
2024-05-09T20:40:35.386Z,88.56
2024-05-09T20:43:09.739Z,88.73
2024-05-09T20:45:37.590Z,89.32
2024-05-09T20:48:05.852Z,89.64
2024-05-09T20:50:38.914Z,90.04
2024-05-09T20:53:09.437Z,89.73
2024-05-09T20:55:36.895Z,89.45
2024-05-09T20:58:04.421Z,89.64
2024-05-09T21:00:39.640Z,88.74
2024-05-09T21:03:10.609Z,88.96
2024-05-09T21:05:38.665Z,89.06
2024-05-09T21:08:06.890Z,89.60
2024-05-09T21:10:35.257Z,89.72
2024-05-09T21:13:03.608Z,89.94
2024-05-09T21:15:34.314Z,89.71
2024-05-09T21:18:01.820Z,89.59
2024-05-09T21:20:32.781Z,89.80
2024-05-09T21:23:01.057Z,89.71
2024-05-09T21:25:28.462Z,89.73
2024-05-09T21:27:55.758Z,89.69
2024-05-09T21:30:32.526Z,89.41
2024-05-09T21:33:12.456Z,88.69
2024-05-09T21:35:41.186Z,89.04
2024-05-09T21:38:08.465Z,89.05
2024-05-09T21:40:36.917Z,89.55
2024-05-09T21:43:05.521Z,89.78
2024-05-09T21:45:33.265Z,89.86
2024-05-09T21:48:00.825Z,89.77
2024-05-09T21:50:37.074Z,89.79
2024-05-09T21:53:08.164Z,90.29
2024-05-09T21:55:35.300Z,90.61
2024-05-09T21:58:03.179Z,90.50
2024-05-09T22:00:36.308Z,90.87
2024-05-09T22:03:06.336Z,91.24
2024-05-09T22:05:36.524Z,91.45
2024-05-09T22:08:04.190Z,91.33
2024-05-09T22:10:34.782Z,90.41
2024-05-09T22:13:04.328Z,90.85
2024-05-09T22:15:35.475Z,90.80
2024-05-09T22:18:03.626Z,90.73
2024-05-09T22:20:36.881Z,91.10
2024-05-09T22:23:09.243Z,92.00
2024-05-09T22:25:38.757Z,92.42
2024-05-09T22:28:06.754Z,93.26
2024-05-09T22:30:37.922Z,93.92
2024-05-09T22:33:07.808Z,93.32
2024-05-09T22:35:35.243Z,94.16
2024-05-09T22:38:02.762Z,95.14
2024-05-09T22:40:42.373Z,94.95
2024-05-09T22:43:21.383Z,94.71
2024-05-09T22:45:50.755Z,95.33
2024-05-09T22:48:18.229Z,95.78
2024-05-09T22:50:45.544Z,95.85
2024-05-09T22:53:12.809Z,94.83
2024-05-09T22:55:42.790Z,95.57
2024-05-09T22:58:10.184Z,94.14
2024-05-09T23:00:37.622Z,93.90
2024-05-09T23:03:05.098Z,93.78
2024-05-09T23:05:32.851Z,93.28
2024-05-09T23:08:01.160Z,94.11
2024-05-09T23:10:35.470Z,94.64
2024-05-09T23:13:08.148Z,94.49
2024-05-09T23:15:36.436Z,94.20
2024-05-09T23:18:04.130Z,94.41
2024-05-09T23:20:37.136Z,93.79
2024-05-09T23:23:06.866Z,94.48
2024-05-09T23:25:34.167Z,95.03
2024-05-09T23:28:01.684Z,95.43
2024-05-09T23:30:37.672Z,96.19
2024-05-09T23:33:08.111Z,96.33
2024-05-09T23:35:35.739Z,96.95
2024-05-09T23:38:02.945Z,95.83
2024-05-09T23:40:37.856Z,95.66
2024-05-09T23:43:07.803Z,96.42
2024-05-09T23:45:37.983Z,96.03
2024-05-09T23:48:06.380Z,96.53
2024-05-09T23:50:36.558Z,96.98
2024-05-09T23:53:07.622Z,96.88
2024-05-09T23:55:36.245Z,97.61
2024-05-09T23:58:03.531Z,96.93
